CA37 weather

Dominican Santa Cruz Hospital Heliport
Santa Cruz, California, United States

Public forecast

Using degrees Fahrenheit for public forecast. Weather courtesy of forecast.io.

Closest aviation weather report (METAR) to Dominican Santa Cruz Hospital Heliport

Closest report is Watsonville Municipal Airport, 9.8 nm (18.2 km) ESE. Retrieved 2019/10/16 04:38 UTC (0 seconds ago):

KWVI 160438Z AUTO 00000KT 10SM OVC005 12/11 A3004 RMK AO2 T01220106

Closest aviation forecast (TAF) to Dominican Santa Cruz Hospital Heliport

Closest forecast is Norman Y. Mineta San Jose International Airport, 22.5 nm (41.6 km) N. Retrieved 2019-10-16 00:27 UTC (4 hours ago):

TAF KSJC 152325Z 1600/1624 32009KT P6SM SKC FM160400 VRB03KT P6SM SKC FM160900 VRB03KT P6SM FEW010 FEW200 FM161200 VRB03KT P6SM BKN010 FM161700 VRB03KT P6SM SCT010 BKN200 FM161900 29008KT P6SM BKN200